createdAt,value
2019-01-16T00:01:25.352Z,9.87
2019-01-16T00:04:14.113Z,5.93
2019-01-16T00:07:09.301Z,7.97
2019-01-16T00:10:16.549Z,6.27
2019-01-16T00:12:56.947Z,7.13
2019-01-16T00:15:45.218Z,5.87
2019-01-16T00:18:33.542Z,11.00
2019-01-16T00:21:24.912Z,6.70
2019-01-16T00:24:22.179Z,7.33
2019-01-16T00:27:17.082Z,5.23
2019-01-16T00:30:08.330Z,6.37
2019-01-16T00:33:11.771Z,9.10
2019-01-16T00:36:04.781Z,8.37
2019-01-16T00:39:05.137Z,9.23
2019-01-16T00:41:50.049Z,11.00
2019-01-16T00:44:41.338Z,10.30
2019-01-16T00:47:28.726Z,6.33
2019-01-16T00:50:23.196Z,8.10
2019-01-16T00:53:10.209Z,8.80
2019-01-16T00:55:56.987Z,6.27
2019-01-16T00:58:44.279Z,8.00
2019-01-16T01:01:22.895Z,13.47
2019-01-16T01:04:09.772Z,8.50
2019-01-16T01:06:57.131Z,5.63
2019-01-16T01:09:48.550Z,7.03
2019-01-16T01:12:36.334Z,5.63
2019-01-16T01:15:17.252Z,9.20
2019-01-16T01:18:05.586Z,5.77
2019-01-16T01:20:55.040Z,5.73
2019-01-16T01:23:34.203Z,9.07
2019-01-16T01:26:28.938Z,9.13
2019-01-16T01:29:29.480Z,9.30
2019-01-16T01:32:13.798Z,9.30
2019-01-16T01:35:01.090Z,8.30
2019-01-16T01:37:52.282Z,5.37
2019-01-16T01:40:46.519Z,5.97
2019-01-16T01:43:37.860Z,7.17
2019-01-16T01:46:25.110Z,6.43
2019-01-16T01:49:12.364Z,6.60
2019-01-16T01:52:19.109Z,9.83
2019-01-16T01:55:06.107Z,11.83
2019-01-16T01:57:53.431Z,10.47
2019-01-16T02:00:40.744Z,7.70
2019-01-16T02:03:27.589Z,6.50
2019-01-16T02:06:22.890Z,7.80
2019-01-16T02:09:10.031Z,6.97
2019-01-16T02:12:04.633Z,8.00
2019-01-16T02:14:59.377Z,6.80
2019-01-16T02:17:55.452Z,6.33
2019-01-16T02:20:43.487Z,5.97
2019-01-16T02:23:30.826Z,7.83
2019-01-16T02:26:14.443Z,6.87
2019-01-16T02:29:01.426Z,6.40
2019-01-16T02:31:52.654Z,5.47
2019-01-16T02:34:35.945Z,4.87
2019-01-16T02:37:30.424Z,5.07
2019-01-16T02:40:25.153Z,7.67
2019-01-16T02:43:06.529Z,7.20
2019-01-16T02:45:54.960Z,4.83
2019-01-16T02:48:56.208Z,6.03
2019-01-16T02:51:41.798Z,8.07
2019-01-16T02:54:41.714Z,6.07
2019-01-16T02:57:24.203Z,5.43
2019-01-16T03:00:12.888Z,5.47
2019-01-16T03:03:13.382Z,5.33
2019-01-16T03:06:00.309Z,5.47
2019-01-16T03:08:58.004Z,4.63
2019-01-16T03:11:35.156Z,5.03
2019-01-16T03:14:21.287Z,7.10
2019-01-16T03:17:02.949Z,5.60
2019-01-16T03:19:52.772Z,5.43
2019-01-16T03:22:39.939Z,4.90
2019-01-16T03:25:27.816Z,6.10
2019-01-16T03:28:05.560Z,5.40
2019-01-16T03:30:43.104Z,4.30
2019-01-16T03:33:35.503Z,6.30
2019-01-16T03:36:27.373Z,6.27
2019-01-16T03:39:21.941Z,4.93
2019-01-16T03:42:03.678Z,5.23
2019-01-16T03:44:57.878Z,4.50
2019-01-16T03:47:49.548Z,7.43
2019-01-16T03:50:29.347Z,4.57
2019-01-16T03:53:14.140Z,5.20
2019-01-16T03:56:08.677Z,6.53
2019-01-16T03:59:12.010Z,5.10
2019-01-16T04:02:07.032Z,6.00
2019-01-16T04:04:53.981Z,6.77
2019-01-16T04:07:54.786Z,5.40
2019-01-16T04:10:52.132Z,6.00
2019-01-16T04:13:41.631Z,6.40
2019-01-16T04:16:32.682Z,7.87
2019-01-16T04:19:34.233Z,7.10
2019-01-16T04:22:21.270Z,8.13
2019-01-16T04:25:12.306Z,5.60
2019-01-16T04:27:51.317Z,6.30
2019-01-16T04:30:39.700Z,5.23
2019-01-16T04:33:35.296Z,4.70
2019-01-16T04:36:23.637Z,6.23
2019-01-16T04:39:05.271Z,6.43
2019-01-16T04:41:51.098Z,6.53
2019-01-16T04:44:36.623Z,9.60
2019-01-16T04:47:43.969Z,7.60
2019-01-16T04:50:32.485Z,7.30
2019-01-16T04:53:36.082Z,4.70
2019-01-16T04:56:40.111Z,8.77
2019-01-16T04:59:27.240Z,7.50
2019-01-16T05:02:24.372Z,6.60
2019-01-16T05:05:21.650Z,5.80
2019-01-16T05:08:08.723Z,5.90
2019-01-16T05:10:56.228Z,8.23
2019-01-16T05:13:43.563Z,6.30
2019-01-16T05:16:25.745Z,7.70
2019-01-16T05:19:12.941Z,8.30
2019-01-16T05:21:59.446Z,7.25
2019-01-16T05:24:50.522Z,6.60
2019-01-16T05:27:43.167Z,10.13
2019-01-16T05:30:34.914Z,8.53
2019-01-16T05:33:13.141Z,6.53
2019-01-16T05:36:00.312Z,9.30
2019-01-16T05:38:57.654Z,11.97
2019-01-16T05:45:17.837Z,9.08
2019-01-16T05:48:18.317Z,6.35
2019-01-16T05:51:19.274Z,10.55
2019-01-16T05:54:23.034Z,10.00
2019-01-16T05:57:14.454Z,7.05
2019-01-16T06:00:08.921Z,6.50
2019-01-16T06:03:09.835Z,11.08
2019-01-16T06:06:01.290Z,10.82
2019-01-16T06:08:48.843Z,8.53
2019-01-16T06:11:46.026Z,10.30
2019-01-16T06:14:29.967Z,7.05
2019-01-16T06:17:27.528Z,13.50
2019-01-16T06:20:14.842Z,9.63
2019-01-16T06:23:01.850Z,9.18
2019-01-16T06:26:05.528Z,8.93
2019-01-16T06:28:52.566Z,9.95
2019-01-16T06:31:50.132Z,8.73
2019-01-16T06:34:32.431Z,10.95
2019-01-16T06:37:26.638Z,8.75
2019-01-16T06:40:12.383Z,12.43
2019-01-16T06:43:00.769Z,12.13
2019-01-16T06:45:51.859Z,10.03
2019-01-16T06:48:44.807Z,10.38
2019-01-16T06:51:24.342Z,10.30
2019-01-16T06:54:01.152Z,8.85
2019-01-16T06:56:48.739Z,9.10
2019-01-16T06:59:26.181Z,11.68
2019-01-16T07:02:13.421Z,11.43
2019-01-16T07:05:13.950Z,10.82
2019-01-16T07:08:05.575Z,10.78
2019-01-16T07:11:03.082Z,13.95
2019-01-16T07:13:50.341Z,9.80
2019-01-16T07:16:38.611Z,12.13
2019-01-16T07:19:19.736Z,9.85
2019-01-16T07:22:07.185Z,17.05
2019-01-16T07:24:54.623Z,12.53
2019-01-16T07:27:38.187Z,12.43
2019-01-16T07:30:40.621Z,11.40
2019-01-16T07:33:24.713Z,9.15
2019-01-16T07:36:08.207Z,9.25
2019-01-16T07:38:55.182Z,10.45
2019-01-16T07:41:42.074Z,10.93
2019-01-16T07:44:39.839Z,12.63
2019-01-16T07:47:37.032Z,12.18
2019-01-16T07:50:37.306Z,15.13
2019-01-16T07:53:25.708Z,13.60
2019-01-16T07:56:12.944Z,11.30
2019-01-16T07:59:07.967Z,13.70
2019-01-16T08:02:02.328Z,13.75
2019-01-16T08:04:55.827Z,18.17
2019-01-16T08:07:53.226Z,15.20
2019-01-16T08:10:52.160Z,20.92
2019-01-16T08:13:39.391Z,12.85
2019-01-16T08:16:40.183Z,15.10
2019-01-16T08:19:28.584Z,17.20
2019-01-16T08:22:16.415Z,15.70
2019-01-16T08:25:03.635Z,15.95
2019-01-16T08:28:01.323Z,16.80
2019-01-16T08:30:55.834Z,20.75
2019-01-16T08:33:47.107Z,18.48
2019-01-16T08:36:34.175Z,18.57
2019-01-16T08:39:20.998Z,20.27
2019-01-16T08:42:08.286Z,17.77
2019-01-16T08:44:46.977Z,23.50
2019-01-16T08:47:38.392Z,17.15
2019-01-16T08:50:32.712Z,17.50
2019-01-16T08:53:24.615Z,15.60
2019-01-16T08:56:11.873Z,17.03
2019-01-16T08:59:03.304Z,18.70
2019-01-16T09:01:51.626Z,17.43
2019-01-16T09:04:38.564Z,16.30
2019-01-16T09:07:18.211Z,17.83
2019-01-16T09:10:06.588Z,17.87
2019-01-16T09:13:01.111Z,14.60
2019-01-16T09:15:58.549Z,14.37
2019-01-16T09:18:35.714Z,15.80
2019-01-16T09:21:36.374Z,15.00
2019-01-16T09:24:39.918Z,22.30
2019-01-16T09:27:27.057Z,17.77
2019-01-16T09:30:19.429Z,15.57
2019-01-16T09:32:57.875Z,19.10
2019-01-16T09:35:46.209Z,15.03
2019-01-16T09:38:37.649Z,14.73
2019-01-16T09:41:24.902Z,21.73
2019-01-16T09:44:07.510Z,18.00
2019-01-16T09:46:54.392Z,18.70
2019-01-16T09:49:40.002Z,17.90
2019-01-16T09:52:28.263Z,19.87
2019-01-16T09:55:16.703Z,14.93
2019-01-16T09:58:02.254Z,14.27
2019-01-16T10:00:50.739Z,15.07
2019-01-16T10:03:37.686Z,22.23
2019-01-16T10:06:24.770Z,19.03
2019-01-16T10:09:15.867Z,16.43
2019-01-16T10:12:10.166Z,20.07
2019-01-16T10:14:58.587Z,16.67
2019-01-16T10:17:39.938Z,22.33
2019-01-16T10:20:35.718Z,15.00
2019-01-16T10:23:17.257Z,11.07
2019-01-16T10:26:08.359Z,11.30
2019-01-16T10:28:56.654Z,12.73
2019-01-16T10:31:48.390Z,17.90
2019-01-16T10:34:36.704Z,9.90
2019-01-16T10:37:24.353Z,7.97
2019-01-16T10:40:21.987Z,10.00
2019-01-16T10:43:10.539Z,12.03
2019-01-16T10:46:08.572Z,11.43
2019-01-16T10:48:57.322Z,13.27
2019-01-16T10:51:44.433Z,11.63
2019-01-16T10:54:31.579Z,11.80
2019-01-16T10:57:35.577Z,7.70
2019-01-16T11:00:25.519Z,9.97
2019-01-16T11:03:06.228Z,10.60
2019-01-16T11:05:52.460Z,10.80
2019-01-16T11:08:33.608Z,9.23
2019-01-16T11:11:22.124Z,15.60
2019-01-16T11:14:13.431Z,7.67
2019-01-16T11:17:00.738Z,12.40
2019-01-16T11:19:51.283Z,12.70
2019-01-16T11:22:39.806Z,10.80
2019-01-16T11:25:21.104Z,7.87
2019-01-16T11:28:12.493Z,10.93
2019-01-16T11:31:11.032Z,11.77
2019-01-16T11:34:02.409Z,7.80
2019-01-16T11:36:58.547Z,9.93
2019-01-16T11:39:36.736Z,6.43
2019-01-16T11:42:28.277Z,8.37
2019-01-16T11:45:15.429Z,10.17
2019-01-16T11:48:22.167Z,7.57
2019-01-16T11:51:10.182Z,6.50
2019-01-16T11:54:00.013Z,7.17
2019-01-16T11:56:45.687Z,4.70
2019-01-16T11:59:52.656Z,9.40
2019-01-16T12:02:42.059Z,10.73
2019-01-16T12:05:34.030Z,9.20
2019-01-16T12:08:21.194Z,8.03
2019-01-16T12:11:28.345Z,7.10
2019-01-16T12:14:16.650Z,8.43
2019-01-16T12:17:05.262Z,8.63
2019-01-16T12:19:59.471Z,7.20
2019-01-16T12:22:46.402Z,9.10
2019-01-16T12:25:33.532Z,8.90
2019-01-16T12:28:31.112Z,9.30
2019-01-16T12:31:20.430Z,6.30
2019-01-16T12:34:07.666Z,4.70
2019-01-16T12:37:17.040Z,7.97
2019-01-16T12:40:04.168Z,7.10
2019-01-16T12:42:48.278Z,8.70
2019-01-16T12:45:45.811Z,10.70
2019-01-16T12:48:53.102Z,7.23
2019-01-16T12:51:33.943Z,9.67
2019-01-16T12:54:22.725Z,13.23
2019-01-16T12:57:16.379Z,12.73
2019-01-16T13:00:07.791Z,9.57
2019-01-16T13:02:55.275Z,9.30
2019-01-16T13:05:42.541Z,15.10
2019-01-16T13:08:40.171Z,11.53
2019-01-16T13:11:37.919Z,7.43
2019-01-16T13:14:30.313Z,8.37
2019-01-16T13:17:09.786Z,5.97
2019-01-16T13:19:52.923Z,6.50
2019-01-16T13:22:47.187Z,11.73
2019-01-16T13:25:41.611Z,18.33
2019-01-16T13:28:33.432Z,22.83
2019-01-16T13:31:21.004Z,16.07
2019-01-16T13:34:24.644Z,20.03
2019-01-16T13:37:19.304Z,20.13
2019-01-16T13:40:07.106Z,15.83
2019-01-16T13:42:54.131Z,18.20
2019-01-16T13:45:41.684Z,17.83
2019-01-16T13:48:30.514Z,23.77
2019-01-16T13:51:21.649Z,24.30
2019-01-16T13:54:09.138Z,20.93
2019-01-16T13:56:56.412Z,22.90
2019-01-16T13:59:39.218Z,12.10
2019-01-16T14:02:33.575Z,14.67
2019-01-16T14:05:17.254Z,13.30
2019-01-16T14:08:07.138Z,12.27
2019-01-16T14:10:55.681Z,10.30
2019-01-16T14:13:37.026Z,8.17
2019-01-16T14:16:25.722Z,10.47
2019-01-16T14:19:17.356Z,8.33
2019-01-16T14:22:04.503Z,7.37
2019-01-16T14:24:51.677Z,9.40
2019-01-16T14:27:40.139Z,7.40
2019-01-16T14:30:30.962Z,9.10
2019-01-16T14:33:24.305Z,10.03
2019-01-16T14:36:25.105Z,8.23
2019-01-16T14:39:16.381Z,7.67
2019-01-16T14:42:13.982Z,10.47
2019-01-16T14:45:08.963Z,8.80
2019-01-16T14:48:06.404Z,8.20
2019-01-16T14:50:53.243Z,10.10
2019-01-16T14:53:50.855Z,30.53
2019-01-16T14:56:38.160Z,17.87
2019-01-16T14:59:32.640Z,10.93
2019-01-16T15:02:33.963Z,47.87
2019-01-16T15:05:21.256Z,15.53
2019-01-16T15:08:15.535Z,10.30
2019-01-16T15:10:58.250Z,10.90
2019-01-16T15:13:45.361Z,9.30
2019-01-16T15:16:38.354Z,9.77
2019-01-16T15:19:30.077Z,9.83
2019-01-16T15:22:25.683Z,10.50
2019-01-16T15:25:20.021Z,8.60
2019-01-16T15:27:56.273Z,10.13
2019-01-16T15:30:44.937Z,7.93
2019-01-16T15:33:49.110Z,8.10
2019-01-16T15:36:38.644Z,9.93
2019-01-16T15:39:34.089Z,10.23
2019-01-16T15:42:40.941Z,7.80
2019-01-16T15:45:27.911Z,7.47
2019-01-16T15:48:26.892Z,6.97
2019-01-16T15:51:14.248Z,11.53
2019-01-16T15:54:11.893Z,13.60
2019-01-16T15:56:59.807Z,10.83
2019-01-16T15:59:51.693Z,7.43
2019-01-16T16:02:46.644Z,9.60
2019-01-16T16:05:30.180Z,8.80
2019-01-16T16:08:30.428Z,9.93
2019-01-16T16:11:24.652Z,10.33
2019-01-16T16:14:13.366Z,10.73
2019-01-16T16:17:07.832Z,9.83
2019-01-16T16:19:55.301Z,10.03
2019-01-16T16:22:40.808Z,9.67
2019-01-16T16:25:37.425Z,8.90
2019-01-16T16:28:41.141Z,10.70
2019-01-16T16:31:32.695Z,13.23
2019-01-16T16:34:24.321Z,10.97
2019-01-16T16:37:28.440Z,11.47
2019-01-16T16:40:18.157Z,8.50
2019-01-16T16:43:22.235Z,10.43
2019-01-16T16:46:29.047Z,8.57
2019-01-16T16:49:16.600Z,11.33
2019-01-16T16:51:57.020Z,10.43
2019-01-16T16:54:54.821Z,13.53
2019-01-16T16:57:46.513Z,12.07
2019-01-16T17:00:33.905Z,10.37
2019-01-16T17:03:28.395Z,9.53
2019-01-16T17:06:17.045Z,10.20
2019-01-16T17:09:05.991Z,10.87
2019-01-16T17:11:58.682Z,10.43
2019-01-16T17:15:05.869Z,9.13
2019-01-16T17:17:54.525Z,12.47
2019-01-16T17:20:42.123Z,7.23
2019-01-16T17:23:29.576Z,11.10
2019-01-16T17:26:25.473Z,8.53
2019-01-16T17:29:07.860Z,8.17
2019-01-16T17:31:48.609Z,12.53
2019-01-16T17:34:40.026Z,11.20
2019-01-16T17:37:27.622Z,7.93
2019-01-16T17:40:08.317Z,9.30
2019-01-16T17:43:00.436Z,8.57
2019-01-16T17:45:51.611Z,8.50
2019-01-16T17:48:47.003Z,7.40
2019-01-16T17:51:31.659Z,8.83
2019-01-16T17:54:25.566Z,9.57
2019-01-16T17:57:29.540Z,8.50
2019-01-16T18:00:17.508Z,9.50
2019-01-16T18:03:05.111Z,9.77
2019-01-16T18:06:02.853Z,8.80
2019-01-16T18:08:57.867Z,9.93
2019-01-16T18:11:40.374Z,9.03
2019-01-16T18:14:32.056Z,11.87
2019-01-16T18:17:20.772Z,8.20
2019-01-16T18:20:21.773Z,7.40
2019-01-16T18:23:09.236Z,7.50
2019-01-16T18:25:51.624Z,8.90
2019-01-16T18:28:52.577Z,7.43
2019-01-16T18:31:56.582Z,11.53
2019-01-16T18:34:51.104Z,7.37
2019-01-16T18:37:44.875Z,5.97
2019-01-16T18:40:33.565Z,9.20
2019-01-16T18:43:25.001Z,9.50
2019-01-16T18:46:12.419Z,10.57
2019-01-16T18:49:19.195Z,11.40
2019-01-16T18:52:07.601Z,13.58
2019-01-16T18:54:57.177Z,13.18
2019-01-16T18:57:51.643Z,14.35
2019-01-16T19:00:39.628Z,16.23
2019-01-16T19:03:30.126Z,12.85
2019-01-16T19:06:27.491Z,13.00
2019-01-16T19:09:18.858Z,9.10
2019-01-16T19:11:59.151Z,8.68
2019-01-16T19:14:43.586Z,11.60
2019-01-16T19:17:35.477Z,8.20
2019-01-16T19:20:26.054Z,7.10
2019-01-16T19:23:13.446Z,8.57
2019-01-16T19:26:06.935Z,10.07
2019-01-16T19:28:54.219Z,8.93
2019-01-16T19:31:54.729Z,8.73
2019-01-16T19:34:49.431Z,8.55
2019-01-16T19:37:47.324Z,8.10
2019-01-16T19:40:34.687Z,9.03
2019-01-16T19:43:27.357Z,5.40
2019-01-16T19:46:16.686Z,6.95
2019-01-16T19:49:05.547Z,8.15
2019-01-16T19:52:00.287Z,8.28
2019-01-16T19:54:47.649Z,7.58
2019-01-16T19:57:39.390Z,8.00
2019-01-16T20:00:26.930Z,7.30
2019-01-16T20:03:14.566Z,8.45
2019-01-16T20:06:06.174Z,9.08
2019-01-16T20:08:54.624Z,8.38
2019-01-16T20:11:45.938Z,7.15
2019-01-16T20:14:37.272Z,7.20
2019-01-16T20:17:31.868Z,7.83
2019-01-16T20:20:32.652Z,7.58
2019-01-16T20:23:30.325Z,7.95
2019-01-16T20:26:34.080Z,7.62
2019-01-16T20:29:23.269Z,9.10
2019-01-16T20:32:11.794Z,6.37
2019-01-16T20:34:48.623Z,7.53
2019-01-16T20:37:28.821Z,8.33
2019-01-16T20:40:17.725Z,7.33
2019-01-16T20:42:57.889Z,9.93
2019-01-16T20:45:39.046Z,6.70
2019-01-16T20:48:33.402Z,5.00
2019-01-16T20:51:31.291Z,5.17
2019-01-16T20:54:09.256Z,6.10
2019-01-16T20:57:07.042Z,5.62
2019-01-16T20:59:54.877Z,4.85
2019-01-16T21:03:01.643Z,5.33
2019-01-16T21:06:02.369Z,4.65
2019-01-16T21:08:47.116Z,4.42
2019-01-16T21:11:35.663Z,3.95
2019-01-16T21:14:22.235Z,4.28
2019-01-16T21:17:09.578Z,4.28
2019-01-16T21:20:10.117Z,4.42
2019-01-16T21:23:04.545Z,3.55
2019-01-16T21:25:51.651Z,4.12
2019-01-16T21:28:39.368Z,5.60
2019-01-16T21:31:26.980Z,4.70
2019-01-16T21:34:24.403Z,4.25
2019-01-16T21:37:22.447Z,4.53
2019-01-16T21:40:16.778Z,6.35
2019-01-16T21:43:22.074Z,4.45
2019-01-16T21:46:06.351Z,5.55
2019-01-16T21:48:52.589Z,4.12
2019-01-16T21:51:53.454Z,5.90
2019-01-16T21:54:33.651Z,3.37
2019-01-16T21:57:17.880Z,3.83
2019-01-16T22:00:07.083Z,4.42
2019-01-16T22:03:01.228Z,6.78
2019-01-16T22:05:48.464Z,5.65
2019-01-16T22:08:40.189Z,4.75
2019-01-16T22:11:44.144Z,5.95
2019-01-16T22:14:27.738Z,7.62
2019-01-16T22:17:15.222Z,6.92
2019-01-16T22:19:53.897Z,5.83
2019-01-16T22:22:40.967Z,6.58
2019-01-16T22:25:27.754Z,5.10
2019-01-16T22:28:04.049Z,5.75
2019-01-16T22:31:04.637Z,5.65
2019-01-16T22:33:56.004Z,7.03
2019-01-16T22:36:43.014Z,5.42
2019-01-16T22:39:30.461Z,6.12
2019-01-16T22:42:09.838Z,5.80
2019-01-16T22:45:10.743Z,4.90
2019-01-16T22:47:58.050Z,5.28
2019-01-16T22:50:46.519Z,4.47
2019-01-16T22:53:43.338Z,4.92
2019-01-16T22:56:40.521Z,6.55
2019-01-16T22:59:24.569Z,5.75
2019-01-16T23:02:16.466Z,10.45
2019-01-16T23:05:03.922Z,7.12
2019-01-16T23:07:58.512Z,4.35
2019-01-16T23:11:10.928Z,5.92
2019-01-16T23:14:08.283Z,10.05
2019-01-16T23:16:58.360Z,6.12
2019-01-16T23:19:46.777Z,5.70
2019-01-16T23:22:22.880Z,5.58
2019-01-16T23:25:07.931Z,6.72
2019-01-16T23:28:14.908Z,7.47
2019-01-16T23:31:02.120Z,4.55
2019-01-16T23:33:50.429Z,4.65
2019-01-16T23:36:39.371Z,7.92
2019-01-16T23:39:31.240Z,3.77
2019-01-16T23:42:19.111Z,4.67
2019-01-16T23:45:06.548Z,4.78
2019-01-16T23:48:06.987Z,4.33
2019-01-16T23:50:54.235Z,6.08
2019-01-16T23:53:40.799Z,5.65
2019-01-16T23:56:47.246Z,4.55
2019-01-16T23:59:41.473Z,5.30
